^^
Saratoga-Weather Station Historical Data
Daily Summary for January 14, 2018 Units:  English    Metric   Both
Daily Weekly Monthly Yearly Custom
  High: Low: Average:
Temperature: 26.2 °F 12.4 °F 17.4 °F
Dew Point: 8.2 °F 1.8 °F 4.5 °F
Humidity: 71% 41% 57%
Wind Speed: 7.9mph 1.2mph 3.6mph
Wind Gust: 11.5mph - -
Wind- - SW
Pressure: 30.64 in 30.28 in -
Precipitation: 0.00 in    
Historical Graphs
 
 
Tabular Data for January 14, 2018
Time Temperature Dew Point Pressure Wind Wind Speed Wind Gust Humidity Rainfall Rate (Hourly) solar
00:03 15.9 °F 8.2 °F 30.28 in NNW 5.4 mph 11.5 mph 71% 0.00 in 0.0 W/m2
00:26 15.5 °F 7.5 °F 30.30 in NNW 3.9 mph 5.8 mph 70% 0.00 in 0.0 W/m2
00:47 15.3 °F 7.6 °F 30.30 in North 3.0 mph 3.5 mph 71% 0.00 in 0.0 W/m2
00:54 15.3 °F 7.6 °F 30.30 in NNW 3.3 mph 6.9 mph 71% 0.00 in 0.0 W/m2
01:02 15.2 °F 7.5 °F 30.31 in NW 2.9 mph 4.0 mph 71% 0.00 in 0.0 W/m2
01:11 15.0 °F 6.7 °F 30.31 in NW 2.5 mph 4.6 mph 69% 0.00 in 0.0 W/m2
01:17 15.0 °F 6.7 °F 30.31 in North 5.0 mph 10.4 mph 69% 0.00 in 0.0 W/m2
01:23 15.0 °F 6.3 °F 30.32 in NNW 2.7 mph 5.8 mph 68% 0.00 in 0.0 W/m2
01:30 14.9 °F 6.2 °F 30.32 in NNW 3.6 mph 6.9 mph 68% 0.00 in 0.0 W/m2
01:36 14.8 °F 6.1 °F 30.33 in NW 5.1 mph 9.2 mph 68% 0.00 in 0.0 W/m2
01:41 14.8 °F 6.1 °F 30.33 in NW 3.7 mph 8.1 mph 68% 0.00 in 0.0 W/m2
01:51 14.7 °F 6.0 °F 30.34 in North 4.8 mph 8.1 mph 68% 0.00 in 0.0 W/m2
01:58 14.6 °F 5.6 °F 30.34 in NW 4.2 mph 5.0 mph 67% 0.00 in 0.0 W/m2
02:04 14.5 °F 5.5 °F 30.34 in NNW 4.9 mph 8.1 mph 67% 0.00 in 0.0 W/m2
02:18 14.3 °F 5.7 °F 30.35 in NNW 2.5 mph 3.5 mph 68% 0.00 in 0.0 W/m2
02:25 14.3 °F 5.7 °F 30.35 in NW 3.7 mph 4.0 mph 68% 0.00 in 0.0 W/m2
02:31 14.2 °F 5.9 °F 30.35 in NW 3.2 mph 3.5 mph 69% 0.00 in 0.0 W/m2
02:50 14.0 °F 5.7 °F 30.36 in North 4.8 mph 4.8 mph 69% 0.00 in 0.0 W/m2
02:56 13.9 °F 5.3 °F 30.36 in North 3.0 mph 4.6 mph 68% 0.00 in 0.0 W/m2
03:04 13.8 °F 5.2 °F 30.36 in NNW 4.9 mph 6.9 mph 68% 0.00 in 0.0 W/m2
03:14 13.7 °F 5.1 °F 30.37 in WNW 3.0 mph 4.6 mph 68% 0.00 in 0.0 W/m2
03:21 13.6 °F 5.0 °F 30.37 in NNW 2.7 mph 4.0 mph 68% 0.00 in 0.0 W/m2
03:26 13.6 °F 5.3 °F 30.37 in NW 4.0 mph 5.8 mph 69% 0.00 in 0.0 W/m2
03:33 13.5 °F 4.9 °F 30.37 in NNW 2.6 mph 3.5 mph 68% 0.00 in 0.0 W/m2
03:44 13.3 °F 4.4 °F 30.37 in NW 4.0 mph 5.8 mph 67% 0.00 in 0.0 W/m2
04:00 13.2 °F 4.3 °F 30.37 in NW 3.5 mph 5.8 mph 67% 0.00 in 0.0 W/m2
04:06 13.2 °F 4.3 °F 30.37 in NNW 3.4 mph 6.0 mph 67% 0.00 in 0.0 W/m2
04:11 13.1 °F 3.9 °F 30.37 in NNW 3.1 mph 4.6 mph 66% 0.00 in 0.0 W/m2
04:18 13.1 °F 3.9 °F 30.38 in NNW 3.5 mph 5.8 mph 66% 0.00 in 0.0 W/m2
04:23 13.0 °F 3.8 °F 30.38 in NW 3.1 mph 4.6 mph 66% 0.00 in 0.0 W/m2
04:28 13.0 °F 3.8 °F 30.38 in NNW 2.9 mph 3.5 mph 66% 0.00 in 0.0 W/m2
04:33 13.0 °F 4.1 °F 30.38 in NNW 3.4 mph 5.8 mph 67% 0.00 in 0.0 W/m2
04:40 12.8 °F 3.6 °F 30.38 in NNW 2.3 mph 4.0 mph 66% 0.00 in 0.0 W/m2
05:06 12.7 °F 3.5 °F 30.38 in NW 3.1 mph 3.5 mph 66% 0.00 in 0.0 W/m2
05:14 12.7 °F 3.5 °F 30.40 in North 2.6 mph 4.6 mph 66% 0.00 in 0.0 W/m2
05:30 12.6 °F 3.1 °F 30.40 in NNW 3.3 mph 4.6 mph 65% 0.00 in 0.0 W/m2
05:39 12.6 °F 3.1 °F 30.40 in NW 2.9 mph 5.0 mph 65% 0.00 in 0.0 W/m2
06:04 12.6 °F 3.4 °F 30.42 in NW 2.7 mph 3.5 mph 66% 0.00 in 0.0 W/m2
06:10 12.6 °F 3.4 °F 30.42 in NNW 3.5 mph 4.6 mph 66% 0.00 in 0.0 W/m2
06:16 12.7 °F 3.5 °F 30.42 in NW 3.5 mph 4.6 mph 66% 0.00 in 0.0 W/m2
06:23 12.8 °F 3.6 °F 30.43 in NW 3.0 mph 4.6 mph 66% 0.00 in 0.0 W/m2
06:33 12.8 °F 3.6 °F 30.43 in North 2.7 mph 3.5 mph 66% 0.00 in 0.0 W/m2
06:39 12.8 °F 3.9 °F 30.44 in NNE 3.5 mph 3.5 mph 67% 0.00 in 0.0 W/m2
06:51 12.9 °F 3.7 °F 30.45 in North 2.6 mph 3.5 mph 66% 0.00 in 0.0 W/m2
07:07 12.8 °F 3.2 °F 30.46 in North 3.0 mph 3.5 mph 65% 0.00 in 0.0 W/m2
07:15 12.9 °F 3.7 °F 30.47 in NNW 2.6 mph 3.5 mph 66% 0.00 in 0.0 W/m2
07:34 13.0 °F 3.4 °F 30.48 in NW 1.2 mph 3.5 mph 65% 0.00 in 12.0 W/m2
07:40 13.1 °F 3.5 °F 30.48 in NNW 1.3 mph 2.3 mph 65% 0.00 in 18.0 W/m2
07:46 13.0 °F 3.4 °F 30.48 in NW 3.0 mph 4.0 mph 65% 0.00 in 23.0 W/m2
07:51 13.0 °F 3.1 °F 30.49 in NNW 2.1 mph 3.5 mph 64% 0.00 in 26.0 W/m2
08:03 13.0 °F 2.8 °F 30.49 in West 2.7 mph 4.0 mph 63% 0.00 in 32.0 W/m2
08:08 13.0 °F 2.4 °F 30.49 in NNW 1.8 mph 3.5 mph 62% 0.00 in 33.0 W/m2
08:19 12.8 °F 1.9 °F 30.50 in NNW 2.5 mph 4.0 mph 61% 0.00 in 30.0 W/m2
08:34 12.6 °F 2.0 °F 30.50 in North 1.9 mph 3.5 mph 62% 0.00 in 19.0 W/m2
08:50 12.5 °F 2.3 °F 30.51 in NW 1.9 mph 3.5 mph 63% 0.00 in 21.0 W/m2
08:59 12.4 °F 1.8 °F 30.52 in NW 2.7 mph 3.5 mph 62% 0.00 in 30.0 W/m2
09:30 13.4 °F 2.4 °F 30.53 in NNW 4.7 mph 8.1 mph 61% 0.00 in 127.0 W/m2
09:38 13.7 °F 2.7 °F 30.54 in North 4.5 mph 9.2 mph 61% 0.00 in 169.0 W/m2
09:48 14.0 °F 3.0 °F 30.54 in NNW 3.5 mph 9.2 mph 61% 0.00 in 172.0 W/m2
09:54 14.1 °F 3.1 °F 30.55 in NW 2.9 mph 4.6 mph 61% 0.00 in 218.0 W/m2
10:07 14.6 °F 3.2 °F 30.55 in NNW 3.6 mph 4.6 mph 60% 0.00 in 329.0 W/m2
10:16 14.9 °F 3.1 °F 30.55 in North 5.1 mph 8.1 mph 59% 0.00 in 248.0 W/m2
10:31 15.7 °F 3.5 °F 30.55 in North 4.4 mph 8.1 mph 58% 0.00 in 128.0 W/m2
10:43 16.4 °F 3.4 °F 30.55 in NNE 7.0 mph 9.2 mph 56% 0.00 in 323.0 W/m2
10:48 16.7 °F 3.7 °F 30.55 in NNE 5.2 mph 8.1 mph 56% 0.00 in 104.0 W/m2
10:53 16.8 °F 3.4 °F 30.54 in NNW 4.8 mph 5.0 mph 55% 0.00 in 225.0 W/m2
10:59 17.2 °F 4.2 °F 30.54 in NNW 3.9 mph 5.8 mph 56% 0.00 in 232.0 W/m2
11:05 17.5 °F 4.1 °F 30.54 in NNE 7.9 mph 10.4 mph 55% 0.00 in 330.0 W/m2
11:10 17.6 °F 3.3 °F 30.54 in NW 4.1 mph 8.1 mph 53% 0.00 in 432.0 W/m2
11:17 17.7 °F 3.8 °F 30.53 in North 4.1 mph 5.8 mph 54% 0.00 in 468.0 W/m2
11:52 20.2 °F 4.5 °F 30.52 in NNW 4.8 mph 9.2 mph 50% 0.00 in 494.0 W/m2
11:57 20.5 °F 4.8 °F 30.52 in NNE 4.9 mph 5.8 mph 50% 0.00 in 494.0 W/m2
12:03 20.8 °F 3.2 °F 30.52 in NW 5.5 mph 9.2 mph 46% 0.00 in 408.0 W/m2
12:10 20.5 °F 2.5 °F 30.51 in NNW 4.3 mph 5.0 mph 45% 0.00 in 473.0 W/m2
12:16 20.8 °F 3.2 °F 30.51 in NNW 3.9 mph 8.1 mph 46% 0.00 in 485.0 W/m2
12:22 21.4 °F 3.8 °F 30.51 in North 5.3 mph 9.2 mph 46% 0.00 in 487.0 W/m2
12:32 22.1 °F 4.4 °F 30.51 in NNW 6.2 mph 8.1 mph 46% 0.00 in 496.0 W/m2
12:38 22.4 °F 4.7 °F 30.51 in NNE 4.7 mph 9.2 mph 46% 0.00 in 492.0 W/m2
12:57 23.4 °F 5.6 °F 30.51 in North 3.5 mph 8.1 mph 46% 0.00 in 480.0 W/m2
13:05 23.7 °F 4.4 °F 30.50 in NW 4.4 mph 8.0 mph 43% 0.00 in 473.0 W/m2
13:27 24.0 °F 5.7 °F 30.50 in NNE 3.6 mph 6.0 mph 45% 0.00 in 334.0 W/m2
13:32 24.3 °F 4.5 °F 30.50 in North 6.5 mph 10.4 mph 42% 0.00 in 380.0 W/m2
13:53 24.1 °F 4.8 °F 30.50 in North 3.4 mph 5.0 mph 43% 0.00 in 216.0 W/m2
14:00 24.2 °F 4.4 °F 30.50 in NNW 3.4 mph 5.0 mph 42% 0.00 in 225.0 W/m2
14:05 24.3 °F 4.5 °F 30.50 in North 2.6 mph 5.8 mph 42% 0.00 in 167.0 W/m2
14:15 24.8 °F 5.4 °F 30.50 in NNE 5.6 mph 9.2 mph 43% 0.00 in 334.0 W/m2
14:20 25.3 °F 5.4 °F 30.50 in NNE 5.2 mph 6.9 mph 42% 0.00 in 120.0 W/m2
14:42 25.1 °F 4.7 °F 30.51 in NNW 4.6 mph 8.1 mph 41% 0.00 in 84.0 W/m2
14:56 24.8 °F 4.4 °F 30.52 in NW 3.3 mph 4.6 mph 41% 0.00 in 107.0 W/m2
15:04 24.8 °F 4.9 °F 30.52 in NNE 5.7 mph 5.8 mph 42% 0.00 in 125.0 W/m2
15:11 25.2 °F 5.3 °F 30.52 in NNW 2.9 mph 3.5 mph 42% 0.00 in 192.0 W/m2
15:18 25.3 °F 5.4 °F 30.52 in NNW 4.7 mph 6.0 mph 42% 0.00 in 98.0 W/m2
15:27 25.4 °F 5.5 °F 30.52 in North 4.5 mph 6.9 mph 42% 0.00 in 172.0 W/m2
15:32 25.5 °F 5.6 °F 30.52 in North 2.3 mph 3.5 mph 42% 0.00 in 105.0 W/m2
15:41 25.9 °F 6.4 °F 30.53 in North 5.8 mph 8.1 mph 43% 0.00 in 95.0 W/m2
15:54 26.2 °F 7.2 °F 30.53 in NNE 1.8 mph 2.3 mph 44% 0.00 in 81.0 W/m2
16:04 26.1 °F 6.1 °F 30.54 in NE 3.5 mph 3.5 mph 42% 0.00 in 63.0 W/m2
16:10 25.9 °F 5.4 °F 30.54 in NNW 2.5 mph 3.5 mph 41% 0.00 in 42.0 W/m2
16:15 25.7 °F 6.3 °F 30.54 in NNE 3.8 mph 4.6 mph 43% 0.00 in 39.0 W/m2
16:21 25.4 °F 5.5 °F 30.54 in NE 3.8 mph 5.8 mph 42% 0.00 in 25.0 W/m2
16:43 23.9 °F 5.1 °F 30.54 in North 3.2 mph 3.5 mph 44% 0.00 in 5.0 W/m2
16:50 23.6 °F 5.8 °F 30.55 in NNE 2.3 mph 3.5 mph 46% 0.00 in 0.0 W/m2
16:59 23.3 °F 5.5 °F 30.55 in NNE 2.2 mph 3.5 mph 46% 0.00 in 0.0 W/m2
17:05 23.0 °F 5.7 °F 30.55 in NNE 2.4 mph 3.5 mph 47% 0.00 in 0.0 W/m2
17:17 22.5 °F 6.2 °F 30.55 in NNW 2.9 mph 3.5 mph 49% 0.00 in 0.0 W/m2
17:27 22.2 °F 5.9 °F 30.56 in NNE 2.5 mph 3.5 mph 49% 0.00 in 0.0 W/m2
17:39 21.8 °F 5.1 °F 30.57 in North 3.1 mph 4.0 mph 48% 0.00 in 0.0 W/m2
17:45 21.7 °F 5.0 °F 30.57 in North 2.2 mph 3.5 mph 48% 0.00 in 0.0 W/m2
17:55 21.5 °F 5.7 °F 30.57 in NNE 1.4 mph 2.3 mph 50% 0.00 in 0.0 W/m2
18:25 20.8 °F 5.5 °F 30.58 in NNE 2.1 mph 3.5 mph 51% 0.00 in 0.0 W/m2
18:30 20.7 °F 5.4 °F 30.58 in NE 2.7 mph 3.5 mph 51% 0.00 in 0.0 W/m2
18:40 20.3 °F 4.2 °F 30.59 in North 2.2 mph 3.5 mph 49% 0.00 in 0.0 W/m2
18:45 20.2 °F 4.1 °F 30.59 in NNE 4.2 mph 7.0 mph 49% 0.00 in 0.0 W/m2
18:51 20.1 °F 3.1 °F 30.59 in North 3.5 mph 4.6 mph 47% 0.00 in 0.0 W/m2
18:59 20.0 °F 3.0 °F 30.59 in North 5.5 mph 6.0 mph 47% 0.00 in 0.0 W/m2
19:14 19.8 °F 3.2 °F 30.60 in North 2.5 mph 4.6 mph 48% 0.00 in 0.0 W/m2
19:23 19.5 °F 3.4 °F 30.60 in North 2.9 mph 3.5 mph 49% 0.00 in 0.0 W/m2
19:38 19.2 °F 4.0 °F 30.60 in NNW 2.9 mph 4.0 mph 51% 0.00 in 0.0 W/m2
19:46 18.9 °F 3.3 °F 30.61 in NNW 3.5 mph 5.0 mph 50% 0.00 in 0.0 W/m2
20:08 18.4 °F 5.7 °F 30.61 in North 2.9 mph 3.5 mph 57% 0.00 in 0.0 W/m2
20:14 18.1 °F 5.8 °F 30.61 in North 2.7 mph 4.6 mph 58% 0.00 in 0.0 W/m2
20:27 17.8 °F 5.5 °F 30.61 in NNE 3.9 mph 6.9 mph 58% 0.00 in 0.0 W/m2
20:33 17.7 °F 5.0 °F 30.61 in North 2.0 mph 4.6 mph 57% 0.00 in 0.0 W/m2
20:41 17.6 °F 5.3 °F 30.61 in NNE 2.7 mph 4.6 mph 58% 0.00 in 0.0 W/m2
20:48 17.5 °F 5.2 °F 30.60 in North 2.6 mph 3.5 mph 58% 0.00 in 0.0 W/m2
21:15 17.2 °F 4.6 °F 30.61 in North 4.0 mph 6.0 mph 57% 0.00 in 0.0 W/m2
21:21 17.1 °F 4.5 °F 30.61 in North 4.1 mph 6.9 mph 57% 0.00 in 0.0 W/m2
21:29 17.0 °F 4.4 °F 30.61 in NNE 4.4 mph 6.9 mph 57% 0.00 in 0.0 W/m2
21:35 17.0 °F 4.4 °F 30.61 in North 2.7 mph 5.0 mph 57% 0.00 in 0.0 W/m2
21:45 16.7 °F 4.5 °F 30.61 in NNW 4.7 mph 8.1 mph 58% 0.00 in 0.0 W/m2
21:54 16.4 °F 4.6 °F 30.62 in NNE 4.4 mph 5.8 mph 59% 0.00 in 0.0 W/m2
22:01 16.3 °F 4.5 °F 30.62 in NNW 3.2 mph 4.6 mph 59% 0.00 in 0.0 W/m2
22:07 16.2 °F 4.4 °F 30.62 in North 2.9 mph 4.0 mph 59% 0.00 in 0.0 W/m2
22:21 15.9 °F 4.1 °F 30.62 in NNE 3.4 mph 4.6 mph 59% 0.00 in 0.0 W/m2
22:27 15.8 °F 4.4 °F 30.62 in North 2.7 mph 4.0 mph 60% 0.00 in 0.0 W/m2
22:39 15.6 °F 4.2 °F 30.62 in NNE 3.9 mph 4.6 mph 60% 0.00 in 0.0 W/m2
22:44 15.4 °F 4.3 °F 30.62 in North 3.4 mph 5.0 mph 61% 0.00 in 0.0 W/m2
22:57 15.2 °F 4.1 °F 30.62 in North 4.7 mph 8.1 mph 61% 0.00 in 0.0 W/m2
23:03 15.1 °F 4.1 °F 30.62 in NNE 4.0 mph 8.1 mph 61% 0.00 in 0.0 W/m2
23:11 15.0 °F 4.0 °F 30.64 in North 4.0 mph 4.6 mph 61% 0.00 in 0.0 W/m2
23:20 14.9 °F 4.2 °F 30.64 in NNE 3.8 mph 6.9 mph 62% 0.00 in 0.0 W/m2
23:25 14.8 °F 4.1 °F 30.64 in NNE 4.7 mph 9.2 mph 62% 0.00 in 0.0 W/m2
23:34 14.7 °F 4.0 °F 30.64 in North 2.7 mph 5.8 mph 62% 0.00 in 0.0 W/m2
23:43 14.6 °F 3.9 °F 30.64 in North 2.4 mph 4.0 mph 62% 0.00 in 0.0 W/m2
23:50 14.5 °F 4.2 °F 30.64 in North 3.2 mph 3.5 mph 63% 0.00 in 0.0 W/m2
23:57 14.4 °F 4.1 °F 30.63 in North 2.6 mph 3.5 mph 63% 0.00 in 0.0 W/m2
Juneau County Weather
Compliments of Weather Underground - 2.25 mb